sensor_id;sensor_type;location;lat;lon;timestamp;pressure;altitude;pressure_sealevel;temperature;humidity
27613;BME280;15036;48.094;-1.690;2023-08-20T00:01:25;101477.41;;;24.63;50.25
27613;BME280;15036;48.094;-1.690;2023-08-20T00:03:51;101483.44;;;23.88;52.38
27613;BME280;15036;48.094;-1.690;2023-08-20T00:06:18;101488.25;;;23.61;53.51
27613;BME280;15036;48.094;-1.690;2023-08-20T00:08:43;101494.44;;;23.68;53.10
27613;BME280;15036;48.094;-1.690;2023-08-20T00:11:10;101484.66;;;23.66;53.42
27613;BME280;15036;48.094;-1.690;2023-08-20T00:13:36;101487.31;;;24.24;51.84
27613;BME280;15036;48.094;-1.690;2023-08-20T00:16:01;101491.53;;;24.32;51.50
27613;BME280;15036;48.094;-1.690;2023-08-20T00:18:28;101485.09;;;23.84;52.75
27613;BME280;15036;48.094;-1.690;2023-08-20T00:20:54;101485.38;;;23.51;54.22
27613;BME280;15036;48.094;-1.690;2023-08-20T00:23:20;101483.88;;;23.07;55.45
27613;BME280;15036;48.094;-1.690;2023-08-20T00:25:46;101490.97;;;23.88;53.48
27613;BME280;15036;48.094;-1.690;2023-08-20T00:28:11;101488.06;;;24.09;52.56
27613;BME280;15036;48.094;-1.690;2023-08-20T00:30:37;101486.91;;;24.05;52.84
27613;BME280;15036;48.094;-1.690;2023-08-20T00:33:02;101487.34;;;24.34;51.93
27613;BME280;15036;48.094;-1.690;2023-08-20T00:35:28;101488.13;;;23.83;53.10
27613;BME280;15036;48.094;-1.690;2023-08-20T00:37:53;101487.00;;;23.42;54.72
27613;BME280;15036;48.094;-1.690;2023-08-20T00:40:19;101484.69;;;24.07;52.66
27613;BME280;15036;48.094;-1.690;2023-08-20T00:42:44;101486.97;;;24.16;52.84
27613;BME280;15036;48.094;-1.690;2023-08-20T00:45:09;101488.19;;;23.93;53.23
27613;BME280;15036;48.094;-1.690;2023-08-20T00:47:35;101486.84;;;23.27;55.06
27613;BME280;15036;48.094;-1.690;2023-08-20T00:50:01;101485.38;;;23.88;53.70
27613;BME280;15036;48.094;-1.690;2023-08-20T00:52:30;101492.34;;;23.85;53.52
27613;BME280;15036;48.094;-1.690;2023-08-20T00:54:57;101486.13;;;24.10;52.87
27613;BME280;15036;48.094;-1.690;2023-08-20T00:57:23;101493.13;;;24.13;53.00
27613;BME280;15036;48.094;-1.690;2023-08-20T00:59:50;101493.53;;;23.99;53.00
27613;BME280;15036;48.094;-1.690;2023-08-20T01:02:17;101486.22;;;23.88;53.28
27613;BME280;15036;48.094;-1.690;2023-08-20T01:04:46;101492.03;;;23.82;53.54
27613;BME280;15036;48.094;-1.690;2023-08-20T01:07:23;101497.34;;;23.47;54.44
27613;BME280;15036;48.094;-1.690;2023-08-20T01:10:09;101496.19;;;23.79;53.62
27613;BME280;15036;48.094;-1.690;2023-08-20T01:12:36;101498.06;;;23.05;55.41
27613;BME280;15036;48.094;-1.690;2023-08-20T01:15:01;101494.66;;;23.98;53.30
27613;BME280;15036;48.094;-1.690;2023-08-20T01:17:27;101500.50;;;23.97;52.90
27613;BME280;15036;48.094;-1.690;2023-08-20T01:19:53;101502.28;;;23.71;53.99
27613;BME280;15036;48.094;-1.690;2023-08-20T01:25:11;101505.38;;;23.11;56.01
27613;BME280;15036;48.094;-1.690;2023-08-20T01:27:58;101507.44;;;22.51;57.34
27613;BME280;15036;48.094;-1.690;2023-08-20T01:30:26;101505.25;;;23.01;56.26
27613;BME280;15036;48.094;-1.690;2023-08-20T01:32:53;101509.19;;;22.79;57.07
27613;BME280;15036;48.094;-1.690;2023-08-20T01:35:19;101504.84;;;22.44;58.23
27613;BME280;15036;48.094;-1.690;2023-08-20T01:37:44;101504.56;;;23.16;56.14
27613;BME280;15036;48.094;-1.690;2023-08-20T01:40:10;101512.22;;;23.04;56.84
27613;BME280;15036;48.094;-1.690;2023-08-20T01:42:37;101508.31;;;22.57;57.82
27613;BME280;15036;48.094;-1.690;2023-08-20T01:45:03;101512.03;;;23.37;55.73
27613;BME280;15036;48.094;-1.690;2023-08-20T01:47:29;101511.50;;;23.40;55.15
27613;BME280;15036;48.094;-1.690;2023-08-20T01:49:54;101519.66;;;23.47;55.35
27613;BME280;15036;48.094;-1.690;2023-08-20T01:52:20;101517.66;;;22.46;57.88
27613;BME280;15036;48.094;-1.690;2023-08-20T01:54:45;101517.50;;;23.00;56.67
27613;BME280;15036;48.094;-1.690;2023-08-20T01:57:11;101512.97;;;23.21;56.29
27613;BME280;15036;48.094;-1.690;2023-08-20T01:59:36;101522.72;;;23.23;56.17
27613;BME280;15036;48.094;-1.690;2023-08-20T02:02:01;101519.13;;;23.23;55.75
27613;BME280;15036;48.094;-1.690;2023-08-20T02:04:27;101521.50;;;23.09;56.26
27613;BME280;15036;48.094;-1.690;2023-08-20T02:06:53;101522.22;;;23.00;56.64
27613;BME280;15036;48.094;-1.690;2023-08-20T02:09:18;101517.81;;;23.31;55.66
27613;BME280;15036;48.094;-1.690;2023-08-20T02:11:45;101524.13;;;23.21;56.12
27613;BME280;15036;48.094;-1.690;2023-08-20T02:14:10;101519.59;;;23.42;55.34
27613;BME280;15036;48.094;-1.690;2023-08-20T02:16:35;101520.97;;;23.12;56.32
27613;BME280;15036;48.094;-1.690;2023-08-20T02:19:02;101525.84;;;23.00;56.60
27613;BME280;15036;48.094;-1.690;2023-08-20T02:21:28;101525.44;;;23.13;56.41
27613;BME280;15036;48.094;-1.690;2023-08-20T02:23:54;101531.69;;;22.99;56.40
27613;BME280;15036;48.094;-1.690;2023-08-20T02:26:20;101527.94;;;23.42;55.38
27613;BME280;15036;48.094;-1.690;2023-08-20T02:28:45;101530.09;;;23.08;56.36
27613;BME280;15036;48.094;-1.690;2023-08-20T02:31:11;101535.94;;;22.80;57.46
27613;BME280;15036;48.094;-1.690;2023-08-20T02:33:36;101532.06;;;22.86;57.08
27613;BME280;15036;48.094;-1.690;2023-08-20T02:36:03;101532.72;;;22.93;56.65
27613;BME280;15036;48.094;-1.690;2023-08-20T02:38:29;101522.41;;;22.67;57.75
27613;BME280;15036;48.094;-1.690;2023-08-20T02:40:54;101526.72;;;23.06;56.49
27613;BME280;15036;48.094;-1.690;2023-08-20T02:43:19;101525.06;;;23.05;56.50
27613;BME280;15036;48.094;-1.690;2023-08-20T02:45:45;101522.63;;;22.87;57.21
27613;BME280;15036;48.094;-1.690;2023-08-20T02:48:11;101528.00;;;22.93;56.91
27613;BME280;15036;48.094;-1.690;2023-08-20T02:50:36;101526.53;;;23.12;56.33
27613;BME280;15036;48.094;-1.690;2023-08-20T02:53:02;101534.19;;;22.74;57.79
27613;BME280;15036;48.094;-1.690;2023-08-20T02:55:29;101529.38;;;22.48;58.31
27613;BME280;15036;48.094;-1.690;2023-08-20T02:57:54;101530.88;;;22.77;57.64
27613;BME280;15036;48.094;-1.690;2023-08-20T03:00:21;101530.69;;;22.83;57.38
27613;BME280;15036;48.094;-1.690;2023-08-20T03:02:47;101536.25;;;23.10;56.79
27613;BME280;15036;48.094;-1.690;2023-08-20T03:05:12;101532.59;;;22.39;59.10
27613;BME280;15036;48.094;-1.690;2023-08-20T03:07:39;101539.97;;;22.51;58.62
27613;BME280;15036;48.094;-1.690;2023-08-20T03:10:05;101542.63;;;21.69;61.63
27613;BME280;15036;48.094;-1.690;2023-08-20T03:12:31;101532.91;;;21.22;62.74
27613;BME280;15036;48.094;-1.690;2023-08-20T03:14:56;101538.84;;;21.75;61.39
27613;BME280;15036;48.094;-1.690;2023-08-20T03:17:22;101534.97;;;22.09;60.01
27613;BME280;15036;48.094;-1.690;2023-08-20T03:19:55;101536.31;;;21.74;61.35
27613;BME280;15036;48.094;-1.690;2023-08-20T03:22:24;101528.41;;;21.99;60.76
27613;BME280;15036;48.094;-1.690;2023-08-20T03:24:50;101534.72;;;21.61;62.08
27613;BME280;15036;48.094;-1.690;2023-08-20T03:27:16;101536.78;;;21.82;61.02
27613;BME280;15036;48.094;-1.690;2023-08-20T03:29:42;101541.78;;;21.19;62.70
27613;BME280;15036;48.094;-1.690;2023-08-20T03:32:07;101533.31;;;21.14;63.29
27613;BME280;15036;48.094;-1.690;2023-08-20T03:34:33;101542.25;;;21.16;63.13
27613;BME280;15036;48.094;-1.690;2023-08-20T03:37:00;101538.69;;;21.04;63.53
27613;BME280;15036;48.094;-1.690;2023-08-20T03:39:25;101537.25;;;21.96;60.61
27613;BME280;15036;48.094;-1.690;2023-08-20T03:41:52;101533.03;;;21.60;61.64
27613;BME280;15036;48.094;-1.690;2023-08-20T03:44:18;101534.72;;;21.44;62.03
27613;BME280;15036;48.094;-1.690;2023-08-20T03:46:43;101528.63;;;21.14;63.16
27613;BME280;15036;48.094;-1.690;2023-08-20T03:49:10;101537.09;;;21.08;63.75
27613;BME280;15036;48.094;-1.690;2023-08-20T03:51:36;101540.88;;;21.02;63.67
27613;BME280;15036;48.094;-1.690;2023-08-20T03:54:03;101534.22;;;21.47;62.04
27613;BME280;15036;48.094;-1.690;2023-08-20T03:56:28;101522.94;;;22.04;60.71
27613;BME280;15036;48.094;-1.690;2023-08-20T03:58:54;101530.97;;;22.22;59.96
27613;BME280;15036;48.094;-1.690;2023-08-20T04:01:20;101538.84;;;22.08;60.04
27613;BME280;15036;48.094;-1.690;2023-08-20T04:03:46;101531.09;;;22.10;60.67
27613;BME280;15036;48.094;-1.690;2023-08-20T04:06:12;101538.22;;;22.23;59.92
27613;BME280;15036;48.094;-1.690;2023-08-20T04:08:37;101525.44;;;22.05;60.10
27613;BME280;15036;48.094;-1.690;2023-08-20T04:11:02;101523.59;;;22.32;59.30
27613;BME280;15036;48.094;-1.690;2023-08-20T04:13:29;101538.84;;;21.75;60.75
27613;BME280;15036;48.094;-1.690;2023-08-20T04:15:54;101531.94;;;21.61;61.25
27613;BME280;15036;48.094;-1.690;2023-08-20T04:18:20;101537.69;;;21.54;61.69
27613;BME280;15036;48.094;-1.690;2023-08-20T04:20:45;101542.81;;;21.96;60.23
27613;BME280;15036;48.094;-1.690;2023-08-20T04:23:10;101544.59;;;21.85;60.59
27613;BME280;15036;48.094;-1.690;2023-08-20T04:25:36;101539.28;;;21.06;63.02
27613;BME280;15036;48.094;-1.690;2023-08-20T04:28:01;101541.06;;;21.90;60.38
27613;BME280;15036;48.094;-1.690;2023-08-20T04:30:26;101535.06;;;21.48;61.40
27613;BME280;15036;48.094;-1.690;2023-08-20T04:32:52;101534.41;;;21.41;62.03
27613;BME280;15036;48.094;-1.690;2023-08-20T04:35:18;101535.91;;;21.48;61.44
27613;BME280;15036;48.094;-1.690;2023-08-20T04:37:43;101532.09;;;21.38;61.97
27613;BME280;15036;48.094;-1.690;2023-08-20T04:40:09;101537.81;;;21.31;61.60
27613;BME280;15036;48.094;-1.690;2023-08-20T04:42:34;101538.41;;;21.17;62.47
27613;BME280;15036;48.094;-1.690;2023-08-20T04:45:00;101545.84;;;21.61;61.09
27613;BME280;15036;48.094;-1.690;2023-08-20T04:47:25;101557.97;;;21.72;60.28
27613;BME280;15036;48.094;-1.690;2023-08-20T04:49:50;101548.19;;;21.69;60.38
27613;BME280;15036;48.094;-1.690;2023-08-20T04:52:16;101549.28;;;21.35;61.18
27613;BME280;15036;48.094;-1.690;2023-08-20T04:54:41;101550.22;;;21.74;59.97
27613;BME280;15036;48.094;-1.690;2023-08-20T04:57:07;101549.56;;;21.83;60.00
27613;BME280;15036;48.094;-1.690;2023-08-20T04:59:34;101553.16;;;21.34;61.18
27613;BME280;15036;48.094;-1.690;2023-08-20T05:01:59;101547.91;;;21.37;61.28
27613;BME280;15036;48.094;-1.690;2023-08-20T05:04:24;101553.09;;;20.89;62.50
27613;BME280;15036;48.094;-1.690;2023-08-20T05:06:50;101560.50;;;20.84;62.29
27613;BME280;15036;48.094;-1.690;2023-08-20T05:09:15;101553.44;;;20.93;61.80
27613;BME280;15036;48.094;-1.690;2023-08-20T05:11:41;101556.28;;;20.81;62.14
27613;BME280;15036;48.094;-1.690;2023-08-20T05:14:06;101562.66;;;20.30;63.86
27613;BME280;15036;48.094;-1.690;2023-08-20T05:16:32;101563.03;;;20.85;62.39
27613;BME280;15036;48.094;-1.690;2023-08-20T05:18:57;101575.53;;;20.99;61.50
27613;BME280;15036;48.094;-1.690;2023-08-20T05:21:22;101575.94;;;21.19;61.13
27613;BME280;15036;48.094;-1.690;2023-08-20T05:23:48;101581.44;;;21.31;60.67
27613;BME280;15036;48.094;-1.690;2023-08-20T05:26:13;101592.75;;;21.41;60.59
27613;BME280;15036;48.094;-1.690;2023-08-20T05:28:39;101594.81;;;21.34;60.29
27613;BME280;15036;48.094;-1.690;2023-08-20T05:31:04;101591.97;;;21.45;59.69
27613;BME280;15036;48.094;-1.690;2023-08-20T05:33:29;101584.03;;;21.21;60.30
27613;BME280;15036;48.094;-1.690;2023-08-20T05:35:55;101582.41;;;20.97;60.62
27613;BME280;15036;48.094;-1.690;2023-08-20T05:38:20;101583.44;;;21.19;59.87
27613;BME280;15036;48.094;-1.690;2023-08-20T05:40:45;101600.84;;;21.14;59.88
27613;BME280;15036;48.094;-1.690;2023-08-20T05:43:12;101593.81;;;21.23;59.86
27613;BME280;15036;48.094;-1.690;2023-08-20T05:45:37;101591.88;;;21.40;59.25
27613;BME280;15036;48.094;-1.690;2023-08-20T05:48:03;101589.41;;;21.27;59.67
27613;BME280;15036;48.094;-1.690;2023-08-20T05:50:28;101587.78;;;21.15;59.95
27613;BME280;15036;48.094;-1.690;2023-08-20T05:52:54;101587.75;;;20.87;60.67
27613;BME280;15036;48.094;-1.690;2023-08-20T05:55:19;101592.63;;;20.68;61.40
27613;BME280;15036;48.094;-1.690;2023-08-20T05:57:44;101585.16;;;20.68;61.25
27613;BME280;15036;48.094;-1.690;2023-08-20T06:00:10;101592.41;;;20.98;60.54
27613;BME280;15036;48.094;-1.690;2023-08-20T06:02:37;101601.25;;;20.43;62.17
27613;BME280;15036;48.094;-1.690;2023-08-20T06:05:03;101595.31;;;21.03;60.30
27613;BME280;15036;48.094;-1.690;2023-08-20T06:07:30;101596.88;;;20.99;60.60
27613;BME280;15036;48.094;-1.690;2023-08-20T06:09:55;101599.66;;;20.99;60.32
27613;BME280;15036;48.094;-1.690;2023-08-20T06:12:22;101609.75;;;20.77;61.41
27613;BME280;15036;48.094;-1.690;2023-08-20T06:14:49;101609.59;;;20.20;62.82
27613;BME280;15036;48.094;-1.690;2023-08-20T06:17:15;101604.91;;;20.84;61.08
27613;BME280;15036;48.094;-1.690;2023-08-20T06:19:41;101605.72;;;21.24;59.79
27613;BME280;15036;48.094;-1.690;2023-08-20T06:22:06;101601.69;;;21.15;60.04
27613;BME280;15036;48.094;-1.690;2023-08-20T06:24:32;101599.28;;;21.35;59.38
27613;BME280;15036;48.094;-1.690;2023-08-20T06:26:57;101595.66;;;21.34;59.47
27613;BME280;15036;48.094;-1.690;2023-08-20T06:29:23;101599.97;;;21.14;60.53
27613;BME280;15036;48.094;-1.690;2023-08-20T06:31:48;101599.63;;;21.38;60.12
27613;BME280;15036;48.094;-1.690;2023-08-20T06:34:15;101606.97;;;21.44;59.92
27613;BME280;15036;48.094;-1.690;2023-08-20T06:36:40;101606.97;;;21.61;59.89
27613;BME280;15036;48.094;-1.690;2023-08-20T06:39:06;101602.09;;;21.51;60.19
27613;BME280;15036;48.094;-1.690;2023-08-20T06:41:31;101605.44;;;21.82;59.51
27613;BME280;15036;48.094;-1.690;2023-08-20T06:43:57;101605.88;;;21.45;60.68
27613;BME280;15036;48.094;-1.690;2023-08-20T06:46:22;101616.56;;;21.53;59.91
27613;BME280;15036;48.094;-1.690;2023-08-20T06:48:49;101605.59;;;21.92;59.10
27613;BME280;15036;48.094;-1.690;2023-08-20T06:51:15;101600.50;;;21.72;59.16
27613;BME280;15036;48.094;-1.690;2023-08-20T06:53:41;101606.25;;;21.99;58.94
27613;BME280;15036;48.094;-1.690;2023-08-20T06:56:10;101617.31;;;22.10;58.61
27613;BME280;15036;48.094;-1.690;2023-08-20T06:58:37;101613.00;;;22.19;58.07
27613;BME280;15036;48.094;-1.690;2023-08-20T07:01:03;101624.28;;;22.29;57.86
27613;BME280;15036;48.094;-1.690;2023-08-20T07:03:39;101617.28;;;22.27;57.86
27613;BME280;15036;48.094;-1.690;2023-08-20T07:06:04;101624.06;;;21.98;58.39
27613;BME280;15036;48.094;-1.690;2023-08-20T07:08:30;101620.69;;;22.12;58.30
27613;BME280;15036;48.094;-1.690;2023-08-20T07:10:56;101621.34;;;22.36;57.62
27613;BME280;15036;48.094;-1.690;2023-08-20T07:13:22;101627.59;;;22.65;57.26
27613;BME280;15036;48.094;-1.690;2023-08-20T07:15:47;101626.25;;;22.67;56.96
27613;BME280;15036;48.094;-1.690;2023-08-20T07:18:13;101634.16;;;22.75;56.63
27613;BME280;15036;48.094;-1.690;2023-08-20T07:20:43;101635.38;;;22.84;56.47
27613;BME280;15036;48.094;-1.690;2023-08-20T07:23:09;101634.66;;;22.94;56.59
27613;BME280;15036;48.094;-1.690;2023-08-20T07:25:39;101640.38;;;23.04;56.16
27613;BME280;15036;48.094;-1.690;2023-08-20T07:28:05;101637.81;;;23.24;55.27
27613;BME280;15036;48.094;-1.690;2023-08-20T07:30:31;101636.94;;;23.18;55.60
27613;BME280;15036;48.094;-1.690;2023-08-20T07:32:56;101639.41;;;23.15;55.75
27613;BME280;15036;48.094;-1.690;2023-08-20T07:35:24;101642.81;;;23.44;55.16
27613;BME280;15036;48.094;-1.690;2023-08-20T07:37:49;101646.25;;;23.51;54.90
27613;BME280;15036;48.094;-1.690;2023-08-20T07:40:14;101638.28;;;23.38;55.41
27613;BME280;15036;48.094;-1.690;2023-08-20T07:42:40;101645.06;;;23.73;54.25
27613;BME280;15036;48.094;-1.690;2023-08-20T07:45:06;101650.66;;;23.73;54.27
27613;BME280;15036;48.094;-1.690;2023-08-20T07:47:33;101658.84;;;23.85;54.26
27613;BME280;15036;48.094;-1.690;2023-08-20T07:49:58;101659.72;;;23.59;54.69
27613;BME280;15036;48.094;-1.690;2023-08-20T07:52:24;101659.06;;;23.78;54.24
27613;BME280;15036;48.094;-1.690;2023-08-20T07:54:49;101661.16;;;23.93;54.00
27613;BME280;15036;48.094;-1.690;2023-08-20T07:57:15;101654.97;;;24.13;53.67
27613;BME280;15036;48.094;-1.690;2023-08-20T07:59:40;101656.38;;;24.57;52.16
27613;BME280;15036;48.094;-1.690;2023-08-20T08:02:06;101646.38;;;24.24;53.04
27613;BME280;15036;48.094;-1.690;2023-08-20T08:04:33;101656.88;;;24.49;52.91
27613;BME280;15036;48.094;-1.690;2023-08-20T08:07:00;101659.72;;;24.59;52.46
27613;BME280;15036;48.094;-1.690;2023-08-20T08:09:30;101657.50;;;24.61;52.78
27613;BME280;15036;48.094;-1.690;2023-08-20T08:11:57;101654.25;;;24.32;53.51
27613;BME280;15036;48.094;-1.690;2023-08-20T08:14:24;101659.16;;;24.57;53.16
27613;BME280;15036;48.094;-1.690;2023-08-20T08:16:49;101663.25;;;24.76;52.42
27613;BME280;15036;48.094;-1.690;2023-08-20T08:19:15;101658.75;;;24.80;52.58
27613;BME280;15036;48.094;-1.690;2023-08-20T08:21:42;101659.16;;;24.99;52.43
27613;BME280;15036;48.094;-1.690;2023-08-20T08:24:08;101665.09;;;25.17;51.88
27613;BME280;15036;48.094;-1.690;2023-08-20T08:26:34;101674.59;;;25.11;52.00
27613;BME280;15036;48.094;-1.690;2023-08-20T08:29:03;101665.66;;;25.19;51.65
27613;BME280;15036;48.094;-1.690;2023-08-20T08:31:30;101662.78;;;24.99;51.90
27613;BME280;15036;48.094;-1.690;2023-08-20T08:33:55;101660.31;;;25.13;51.58
27613;BME280;15036;48.094;-1.690;2023-08-20T08:36:21;101667.38;;;25.30;51.06
27613;BME280;15036;48.094;-1.690;2023-08-20T08:38:48;101675.41;;;24.60;52.36
27613;BME280;15036;48.094;-1.690;2023-08-20T08:41:13;101680.81;;;25.38;50.98
27613;BME280;15036;48.094;-1.690;2023-08-20T08:43:40;101679.09;;;25.22;51.03
27613;BME280;15036;48.094;-1.690;2023-08-20T08:46:07;101674.25;;;25.74;49.98
27613;BME280;15036;48.094;-1.690;2023-08-20T08:48:34;101675.38;;;25.78;49.72
27613;BME280;15036;48.094;-1.690;2023-08-20T08:51:03;101675.00;;;25.50;50.63
27613;BME280;15036;48.094;-1.690;2023-08-20T08:53:29;101681.25;;;26.02;49.23
27613;BME280;15036;48.094;-1.690;2023-08-20T08:55:55;101681.81;;;25.94;49.77
27613;BME280;15036;48.094;-1.690;2023-08-20T08:58:21;101683.53;;;25.13;50.97
27613;BME280;15036;48.094;-1.690;2023-08-20T09:00:46;101677.88;;;25.80;49.54
27613;BME280;15036;48.094;-1.690;2023-08-20T09:03:12;101681.56;;;26.21;48.40
27613;BME280;15036;48.094;-1.690;2023-08-20T09:05:48;101691.09;;;26.20;48.22
27613;BME280;15036;48.094;-1.690;2023-08-20T09:08:26;101686.59;;;26.54;47.36
27613;BME280;15036;48.094;-1.690;2023-08-20T09:10:53;101682.34;;;26.67;47.00
27613;BME280;15036;48.094;-1.690;2023-08-20T09:13:38;101684.91;;;26.68;47.26
27613;BME280;15036;48.094;-1.690;2023-08-20T09:16:07;101682.69;;;26.05;48.07
27613;BME280;15036;48.094;-1.690;2023-08-20T09:18:54;101679.31;;;26.58;46.73
27613;BME280;15036;48.094;-1.690;2023-08-20T09:21:26;101678.16;;;26.59;45.50
27613;BME280;15036;48.094;-1.690;2023-08-20T09:23:53;101667.78;;;26.85;45.25
27613;BME280;15036;48.094;-1.690;2023-08-20T09:26:19;101664.59;;;27.06;45.34
27613;BME280;15036;48.094;-1.690;2023-08-20T09:28:46;101679.81;;;26.85;44.94
27613;BME280;15036;48.094;-1.690;2023-08-20T09:31:12;101677.59;;;26.87;43.23
27613;BME280;15036;48.094;-1.690;2023-08-20T09:33:51;101658.94;;;27.21;43.38
27613;BME280;15036;48.094;-1.690;2023-08-20T09:36:17;101659.81;;;27.17;44.51
27613;BME280;15036;48.094;-1.690;2023-08-20T09:38:43;101661.66;;;27.47;44.26
27613;BME280;15036;48.094;-1.690;2023-08-20T09:41:09;101661.59;;;27.52;44.69
27613;BME280;15036;48.094;-1.690;2023-08-20T09:43:38;101651.75;;;27.59;44.88
27613;BME280;15036;48.094;-1.690;2023-08-20T09:46:05;101648.31;;;27.13;45.28
27613;BME280;15036;48.094;-1.690;2023-08-20T09:48:34;101654.16;;;27.76;44.24
27613;BME280;15036;48.094;-1.690;2023-08-20T09:51:10;101642.66;;;27.72;42.94
27613;BME280;15036;48.094;-1.690;2023-08-20T09:53:45;101647.41;;;27.77;42.23
27613;BME280;15036;48.094;-1.690;2023-08-20T09:56:24;101657.72;;;27.86;41.81
27613;BME280;15036;48.094;-1.690;2023-08-20T09:58:51;101647.06;;;27.83;42.02
27613;BME280;15036;48.094;-1.690;2023-08-20T10:01:17;101650.44;;;27.41;42.08
27613;BME280;15036;48.094;-1.690;2023-08-20T10:03:43;101648.91;;;28.03;41.35
27613;BME280;15036;48.094;-1.690;2023-08-20T10:06:09;101647.69;;;28.14;41.85
27613;BME280;15036;48.094;-1.690;2023-08-20T10:08:36;101654.03;;;27.52;42.90
27613;BME280;15036;48.094;-1.690;2023-08-20T10:11:02;101664.16;;;26.74;44.11
27613;BME280;15036;48.094;-1.690;2023-08-20T10:13:27;101653.53;;;27.84;42.34
27613;BME280;15036;48.094;-1.690;2023-08-20T10:15:53;101660.22;;;27.93;40.75
27613;BME280;15036;48.094;-1.690;2023-08-20T10:18:21;101674.16;;;28.08;40.79
27613;BME280;15036;48.094;-1.690;2023-08-20T10:20:50;101669.56;;;28.17;40.32
27613;BME280;15036;48.094;-1.690;2023-08-20T10:23:20;101668.06;;;27.96;39.83
27613;BME280;15036;48.094;-1.690;2023-08-20T10:25:45;101673.09;;;28.33;39.45
27613;BME280;15036;48.094;-1.690;2023-08-20T10:28:32;101670.94;;;28.24;39.54
27613;BME280;15036;48.094;-1.690;2023-08-20T10:31:07;101668.44;;;28.47;38.26
27613;BME280;15036;48.094;-1.690;2023-08-20T10:33:35;101672.25;;;28.66;37.84
27613;BME280;15036;48.094;-1.690;2023-08-20T10:36:14;101669.22;;;27.95;38.68
27613;BME280;15036;48.094;-1.690;2023-08-20T10:38:40;101671.16;;;27.94;37.78
27613;BME280;15036;48.094;-1.690;2023-08-20T10:41:06;101664.94;;;28.65;36.88
27613;BME280;15036;48.094;-1.690;2023-08-20T10:43:46;101666.59;;;27.65;40.35
27613;BME280;15036;48.094;-1.690;2023-08-20T10:46:26;101676.91;;;27.74;39.89
27613;BME280;15036;48.094;-1.690;2023-08-20T10:54:09;101666.66;;;28.61;38.83
27613;BME280;15036;48.094;-1.690;2023-08-20T10:56:47;101653.88;;;28.97;38.05
27613;BME280;15036;48.094;-1.690;2023-08-20T11:01:52;101657.03;;;28.90;37.70
27613;BME280;15036;48.094;-1.690;2023-08-20T11:04:19;101665.31;;;29.05;37.72
27613;BME280;15036;48.094;-1.690;2023-08-20T11:06:46;101672.56;;;28.88;38.51
27613;BME280;15036;48.094;-1.690;2023-08-20T11:09:12;101659.59;;;29.34;37.65
27613;BME280;15036;48.094;-1.690;2023-08-20T11:11:39;101666.66;;;28.61;37.94
27613;BME280;15036;48.094;-1.690;2023-08-20T11:14:12;101671.75;;;28.25;37.96
27613;BME280;15036;48.094;-1.690;2023-08-20T11:16:39;101665.78;;;29.12;36.89
27613;BME280;15036;48.094;-1.690;2023-08-20T11:19:06;101668.34;;;28.62;37.62
27613;BME280;15036;48.094;-1.690;2023-08-20T11:21:34;101669.72;;;29.35;36.12
27613;BME280;15036;48.094;-1.690;2023-08-20T11:24:01;101666.75;;;29.27;36.34
27613;BME280;15036;48.094;-1.690;2023-08-20T11:26:26;101674.81;;;28.62;37.35
27613;BME280;15036;48.094;-1.690;2023-08-20T11:28:52;101657.06;;;29.14;36.29
27613;BME280;15036;48.094;-1.690;2023-08-20T11:31:17;101661.56;;;29.34;36.01
27613;BME280;15036;48.094;-1.690;2023-08-20T11:33:42;101662.56;;;29.24;36.65
27613;BME280;15036;48.094;-1.690;2023-08-20T11:36:08;101662.75;;;28.85;37.52
27613;BME280;15036;48.094;-1.690;2023-08-20T11:38:33;101654.88;;;28.82;36.20
27613;BME280;15036;48.094;-1.690;2023-08-20T11:40:59;101665.44;;;28.95;34.97
27613;BME280;15036;48.094;-1.690;2023-08-20T11:43:27;101660.28;;;29.26;34.97
27613;BME280;15036;48.094;-1.690;2023-08-20T11:45:52;101661.25;;;29.96;34.80
27613;BME280;15036;48.094;-1.690;2023-08-20T11:48:19;101668.50;;;30.34;33.96
27613;BME280;15036;48.094;-1.690;2023-08-20T11:50:46;101657.19;;;29.46;35.59
27613;BME280;15036;48.094;-1.690;2023-08-20T11:53:12;101668.94;;;29.90;34.77
27613;BME280;15036;48.094;-1.690;2023-08-20T11:55:41;101662.19;;;30.24;34.21
27613;BME280;15036;48.094;-1.690;2023-08-20T11:58:11;101655.13;;;30.72;33.45
27613;BME280;15036;48.094;-1.690;2023-08-20T12:00:37;101658.50;;;30.88;33.48
27613;BME280;15036;48.094;-1.690;2023-08-20T12:03:02;101647.53;;;30.86;33.58
27613;BME280;15036;48.094;-1.690;2023-08-20T12:05:29;101658.53;;;30.69;33.83
27613;BME280;15036;48.094;-1.690;2023-08-20T12:07:59;101661.47;;;30.77;33.17
27613;BME280;15036;48.094;-1.690;2023-08-20T12:10:26;101647.38;;;30.77;32.90
27613;BME280;15036;48.094;-1.690;2023-08-20T12:12:53;101654.16;;;29.43;35.65
27613;BME280;15036;48.094;-1.690;2023-08-20T12:15:19;101655.28;;;29.98;34.65
27613;BME280;15036;48.094;-1.690;2023-08-20T12:18:01;101661.53;;;30.45;34.35
27613;BME280;15036;48.094;-1.690;2023-08-20T12:20:28;101653.91;;;31.05;33.23
27613;BME280;15036;48.094;-1.690;2023-08-20T12:22:55;101656.31;;;31.12;33.56
27613;BME280;15036;48.094;-1.690;2023-08-20T12:25:20;101650.69;;;31.61;33.08
27613;BME280;15036;48.094;-1.690;2023-08-20T12:27:45;101650.94;;;31.87;32.42
27613;BME280;15036;48.094;-1.690;2023-08-20T12:30:11;101654.03;;;31.63;32.87
27613;BME280;15036;48.094;-1.690;2023-08-20T12:32:37;101656.00;;;31.00;33.13
27613;BME280;15036;48.094;-1.690;2023-08-20T12:35:02;101650.94;;;31.24;33.02
27613;BME280;15036;48.094;-1.690;2023-08-20T12:37:28;101647.00;;;31.74;32.42
27613;BME280;15036;48.094;-1.690;2023-08-20T12:39:53;101643.81;;;32.11;31.96
27613;BME280;15036;48.094;-1.690;2023-08-20T12:42:19;101651.00;;;32.62;30.62
27613;BME280;15036;48.094;-1.690;2023-08-20T12:44:44;101645.22;;;32.75;31.33
27613;BME280;15036;48.094;-1.690;2023-08-20T12:47:09;101635.25;;;33.17;30.49
27613;BME280;15036;48.094;-1.690;2023-08-20T12:49:35;101631.50;;;34.16;29.00